sensor_id;sensor_type;location;lat;lon;timestamp;pressure;altitude;pressure_sealevel;temperature;humidity
14885;BME280;7534;50.762;7.000;2023-04-28T00:00:28;87733.09;;;-143.16;52.61
14885;BME280;7534;50.762;7.000;2023-04-28T00:02:54;87761.34;;;-143.16;52.50
14885;BME280;7534;50.762;7.000;2023-04-28T00:05:20;87716.94;;;-143.16;52.51
14885;BME280;7534;50.762;7.000;2023-04-28T00:07:48;87628.13;;;-143.16;52.51
14885;BME280;7534;50.762;7.000;2023-04-28T00:10:13;87692.72;;;-143.16;52.64
14885;BME280;7534;50.762;7.000;2023-04-28T00:12:39;87545.38;;;-143.16;52.42
14885;BME280;7534;50.762;7.000;2023-04-28T00:15:06;87702.81;;;-143.16;51.78
14885;BME280;7534;50.762;7.000;2023-04-28T00:17:32;87692.72;;;-143.16;52.23
14885;BME280;7534;50.762;7.000;2023-04-28T00:19:58;87696.75;;;-143.16;52.27
14885;BME280;7534;50.762;7.000;2023-04-28T00:22:24;87618.06;;;-143.16;52.12
14885;BME280;7534;50.762;7.000;2023-04-28T00:24:49;87672.53;;;-143.16;52.40
14885;BME280;7534;50.762;7.000;2023-04-28T00:27:15;87664.47;;;-143.16;53.01
14885;BME280;7534;50.762;7.000;2023-04-28T00:29:41;87684.66;;;-143.16;53.84
14885;BME280;7534;50.762;7.000;2023-04-28T00:32:06;87712.91;;;-143.16;54.22
14885;BME280;7534;50.762;7.000;2023-04-28T00:34:33;87666.50;;;-143.16;54.78
14885;BME280;7534;50.762;7.000;2023-04-28T00:36:59;87670.53;;;-143.16;55.53
14885;BME280;7534;50.762;7.000;2023-04-28T00:39:24;87739.16;;;-143.16;55.66
14885;BME280;7534;50.762;7.000;2023-04-28T00:41:52;87741.16;;;-143.16;56.14
14885;BME280;7534;50.762;7.000;2023-04-28T00:44:17;87773.47;;;-143.16;56.12
14885;BME280;7534;50.762;7.000;2023-04-28T00:46:43;87739.16;;;-143.16;57.45
14885;BME280;7534;50.762;7.000;2023-04-28T00:49:09;87817.88;;;-143.16;57.87
14885;BME280;7534;50.762;7.000;2023-04-28T00:51:35;87791.63;;;-143.16;57.09
14885;BME280;7534;50.762;7.000;2023-04-28T00:54:01;87811.81;;;-143.16;57.92
14885;BME280;7534;50.762;7.000;2023-04-28T00:56:28;87823.91;;;-143.16;58.73
14885;BME280;7534;50.762;7.000;2023-04-28T00:58:56;87783.56;;;-143.16;58.59
14885;BME280;7534;50.762;7.000;2023-04-28T01:01:22;87761.34;;;-143.16;58.69
14885;BME280;7534;50.762;7.000;2023-04-28T01:03:48;87805.75;;;-143.16;58.56
14885;BME280;7534;50.762;7.000;2023-04-28T01:06:15;87817.88;;;-143.16;58.35
14885;BME280;7534;50.762;7.000;2023-04-28T01:08:41;87807.78;;;-143.16;58.74
14885;BME280;7534;50.762;7.000;2023-04-28T01:11:08;87852.19;;;-143.16;58.93
14885;BME280;7534;50.762;7.000;2023-04-28T01:13:39;87783.56;;;-143.16;58.25
14885;BME280;7534;50.762;7.000;2023-04-28T01:16:06;87797.69;;;-143.16;58.43
14885;BME280;7534;50.762;7.000;2023-04-28T01:18:32;87755.31;;;-143.16;57.68
14885;BME280;7534;50.762;7.000;2023-04-28T01:20:59;87747.22;;;-143.16;57.29
14885;BME280;7534;50.762;7.000;2023-04-28T01:23:24;87765.38;;;-143.16;58.57
14885;BME280;7534;50.762;7.000;2023-04-28T01:25:50;87866.31;;;-143.16;59.72
14885;BME280;7534;50.762;7.000;2023-04-28T01:28:16;87832.00;;;-143.16;61.24
14885;BME280;7534;50.762;7.000;2023-04-28T01:30:42;87874.38;;;-143.16;62.27
14885;BME280;7534;50.762;7.000;2023-04-28T01:33:08;87811.81;;;-143.16;62.42
14885;BME280;7534;50.762;7.000;2023-04-28T01:35:35;87876.41;;;-143.16;63.90
14885;BME280;7534;50.762;7.000;2023-04-28T01:38:00;87945.03;;;-143.16;65.35
14885;BME280;7534;50.762;7.000;2023-04-28T01:40:26;87902.66;;;-143.16;67.46
14885;BME280;7534;50.762;7.000;2023-04-28T01:42:52;87888.50;;;-143.16;68.45
14885;BME280;7534;50.762;7.000;2023-04-28T01:45:17;87922.81;;;-143.16;69.74
14885;BME280;7534;50.762;7.000;2023-04-28T01:47:43;87900.63;;;-143.16;71.57
14885;BME280;7534;50.762;7.000;2023-04-28T01:50:09;87941.00;;;-143.16;72.77
14885;BME280;7534;50.762;7.000;2023-04-28T01:52:35;87910.72;;;-143.16;73.35
14885;BME280;7534;50.762;7.000;2023-04-28T01:55:01;87926.88;;;-143.16;73.62
14885;BME280;7534;50.762;7.000;2023-04-28T01:57:27;87924.84;;;-143.16;74.77
14885;BME280;7534;50.762;7.000;2023-04-28T01:59:53;87943.00;;;-143.16;75.53
14885;BME280;7534;50.762;7.000;2023-04-28T02:02:19;87955.13;;;-143.16;75.23
14885;BME280;7534;50.762;7.000;2023-04-28T02:04:45;87906.69;;;-143.16;75.80
14885;BME280;7534;50.762;7.000;2023-04-28T02:07:11;87938.97;;;-143.16;76.74
14885;BME280;7534;50.762;7.000;2023-04-28T02:09:36;87981.38;;;-143.16;76.93
14885;BME280;7534;50.762;7.000;2023-04-28T02:12:02;87920.81;;;-143.16;76.48
14885;BME280;7534;50.762;7.000;2023-04-28T02:14:29;88043.94;;;-143.16;75.66
14885;BME280;7534;50.762;7.000;2023-04-28T02:16:57;87963.19;;;-143.16;75.22
14885;BME280;7534;50.762;7.000;2023-04-28T02:19:26;87943.00;;;-143.16;74.97
14885;BME280;7534;50.762;7.000;2023-04-28T02:21:52;87949.06;;;-143.16;74.76
14885;BME280;7534;50.762;7.000;2023-04-28T02:24:18;87963.19;;;-143.16;74.62
14885;BME280;7534;50.762;7.000;2023-04-28T02:26:43;87882.47;;;-143.16;74.52
14885;BME280;7534;50.762;7.000;2023-04-28T02:29:09;87995.50;;;-143.16;74.90
14885;BME280;7534;50.762;7.000;2023-04-28T02:31:35;87955.13;;;-143.16;75.05
14885;BME280;7534;50.762;7.000;2023-04-28T02:34:00;87947.06;;;-143.16;74.25
14885;BME280;7534;50.762;7.000;2023-04-28T02:36:26;87987.44;;;-143.16;74.04
14885;BME280;7534;50.762;7.000;2023-04-28T02:38:52;87975.31;;;-143.16;74.22
14885;BME280;7534;50.762;7.000;2023-04-28T02:41:17;87967.25;;;-143.16;74.65
14885;BME280;7534;50.762;7.000;2023-04-28T02:43:43;87981.38;;;-143.16;74.19
14885;BME280;7534;50.762;7.000;2023-04-28T02:46:09;87991.47;;;-143.16;73.84
14885;BME280;7534;50.762;7.000;2023-04-28T02:48:35;87967.25;;;-143.16;74.13
14885;BME280;7534;50.762;7.000;2023-04-28T02:51:02;87969.25;;;-143.16;74.61
14885;BME280;7534;50.762;7.000;2023-04-28T02:53:30;87979.34;;;-143.16;75.02
14885;BME280;7534;50.762;7.000;2023-04-28T02:55:57;87965.22;;;-143.16;75.35
14885;BME280;7534;50.762;7.000;2023-04-28T02:58:23;87951.09;;;-143.16;75.59
14885;BME280;7534;50.762;7.000;2023-04-28T03:00:49;87987.44;;;-143.16;75.09
14885;BME280;7534;50.762;7.000;2023-04-28T03:03:15;88003.56;;;-143.16;76.09
14885;BME280;7534;50.762;7.000;2023-04-28T03:05:41;88011.66;;;-143.16;76.37
14885;BME280;7534;50.762;7.000;2023-04-28T03:08:06;87914.75;;;-143.16;76.94
14885;BME280;7534;50.762;7.000;2023-04-28T03:10:32;87995.50;;;-143.16;76.83
14885;BME280;7534;50.762;7.000;2023-04-28T03:12:58;87953.09;;;-143.16;77.11
14885;BME280;7534;50.762;7.000;2023-04-28T03:15:24;88003.56;;;-143.16;77.15
14885;BME280;7534;50.762;7.000;2023-04-28T03:17:49;87965.22;;;-143.16;77.01
14885;BME280;7534;50.762;7.000;2023-04-28T03:20:15;87945.03;;;-143.16;77.60
14885;BME280;7534;50.762;7.000;2023-04-28T03:22:41;88015.69;;;-143.16;77.56
14885;BME280;7534;50.762;7.000;2023-04-28T03:25:07;88068.16;;;-143.16;78.74
14885;BME280;7534;50.762;7.000;2023-04-28T03:27:33;87985.41;;;-143.16;79.46
14885;BME280;7534;50.762;7.000;2023-04-28T03:29:58;87989.44;;;-143.16;79.87
14885;BME280;7534;50.762;7.000;2023-04-28T03:32:24;87963.19;;;-143.16;80.61
14885;BME280;7534;50.762;7.000;2023-04-28T03:34:50;87993.47;;;-143.16;80.96
14885;BME280;7534;50.762;7.000;2023-04-28T03:37:15;87930.91;;;-143.16;81.23
14885;BME280;7534;50.762;7.000;2023-04-28T03:39:41;87938.97;;;-143.16;81.23
14885;BME280;7534;50.762;7.000;2023-04-28T03:42:07;87991.47;;;-143.16;81.01
14885;BME280;7534;50.762;7.000;2023-04-28T03:44:32;87965.22;;;-143.16;81.73
14885;BME280;7534;50.762;7.000;2023-04-28T03:46:58;87979.34;;;-143.16;82.48
14885;BME280;7534;50.762;7.000;2023-04-28T03:49:24;88019.72;;;-143.16;83.29
14885;BME280;7534;50.762;7.000;2023-04-28T03:51:50;88007.59;;;-143.16;84.68
14885;BME280;7534;50.762;7.000;2023-04-28T03:54:16;88011.66;;;-143.16;85.18
14885;BME280;7534;50.762;7.000;2023-04-28T03:56:43;88035.88;;;-143.16;85.79
14885;BME280;7534;50.762;7.000;2023-04-28T03:59:08;87969.25;;;-143.16;85.97
14885;BME280;7534;50.762;7.000;2023-04-28T04:01:36;88019.72;;;-143.16;85.99
14885;BME280;7534;50.762;7.000;2023-04-28T04:04:03;88043.94;;;-143.16;85.74
14885;BME280;7534;50.762;7.000;2023-04-28T04:06:29;88070.19;;;-143.16;85.51
14885;BME280;7534;50.762;7.000;2023-04-28T04:08:55;88017.69;;;-143.16;85.67
14885;BME280;7534;50.762;7.000;2023-04-28T04:11:21;88060.09;;;-143.16;86.09
14885;BME280;7534;50.762;7.000;2023-04-28T04:13:46;88054.03;;;-143.16;86.55
14885;BME280;7534;50.762;7.000;2023-04-28T04:16:13;88005.59;;;-143.16;86.57
14885;BME280;7534;50.762;7.000;2023-04-28T04:18:40;88031.84;;;-143.16;86.67
14885;BME280;7534;50.762;7.000;2023-04-28T04:21:06;88043.94;;;-143.16;86.84
14885;BME280;7534;50.762;7.000;2023-04-28T04:23:32;88130.75;;;-143.16;86.54
14885;BME280;7534;50.762;7.000;2023-04-28T04:25:57;88074.22;;;-143.16;86.57
14885;BME280;7534;50.762;7.000;2023-04-28T04:28:23;88076.25;;;-143.16;86.09
14885;BME280;7534;50.762;7.000;2023-04-28T04:30:49;88116.63;;;-143.16;85.77
14885;BME280;7534;50.762;7.000;2023-04-28T04:33:14;88007.59;;;-143.16;85.78
14885;BME280;7534;50.762;7.000;2023-04-28T04:35:40;88050.00;;;-143.16;86.17
14885;BME280;7534;50.762;7.000;2023-04-28T04:38:06;88043.94;;;-143.16;86.26
14885;BME280;7534;50.762;7.000;2023-04-28T04:40:32;87999.53;;;-143.16;86.37
14885;BME280;7534;50.762;7.000;2023-04-28T04:42:57;88039.91;;;-143.16;86.52
14885;BME280;7534;50.762;7.000;2023-04-28T04:45:23;88050.00;;;-143.16;85.77
14885;BME280;7534;50.762;7.000;2023-04-28T04:47:49;88039.91;;;-143.16;85.87
14885;BME280;7534;50.762;7.000;2023-04-28T04:50:15;88054.03;;;-143.16;85.71
14885;BME280;7534;50.762;7.000;2023-04-28T04:52:40;88003.56;;;-143.16;85.33
14885;BME280;7534;50.762;7.000;2023-04-28T04:55:07;88033.84;;;-143.16;84.92
14885;BME280;7534;50.762;7.000;2023-04-28T04:57:32;88033.84;;;-143.16;84.62
14885;BME280;7534;50.762;7.000;2023-04-28T04:59:58;88037.88;;;-143.16;84.62
14885;BME280;7534;50.762;7.000;2023-04-28T05:02:24;87983.38;;;-143.16;84.46
14885;BME280;7534;50.762;7.000;2023-04-28T05:04:50;88052.00;;;-143.16;84.39
14885;BME280;7534;50.762;7.000;2023-04-28T05:07:15;88007.59;;;-143.16;84.57
14885;BME280;7534;50.762;7.000;2023-04-28T05:09:41;87979.34;;;-143.16;84.16
14885;BME280;7534;50.762;7.000;2023-04-28T05:12:07;88023.75;;;-143.16;84.22
14885;BME280;7534;50.762;7.000;2023-04-28T05:14:32;88027.78;;;-143.16;84.45
14885;BME280;7534;50.762;7.000;2023-04-28T05:16:58;88029.81;;;-143.16;84.62
14885;BME280;7534;50.762;7.000;2023-04-28T05:19:24;88031.84;;;-143.16;84.83
14885;BME280;7534;50.762;7.000;2023-04-28T05:21:50;88056.06;;;-143.16;85.28
14885;BME280;7534;50.762;7.000;2023-04-28T05:24:20;88021.75;;;-143.16;84.94
14885;BME280;7534;50.762;7.000;2023-04-28T05:26:49;88064.13;;;-143.16;85.12
14885;BME280;7534;50.762;7.000;2023-04-28T05:29:15;88074.22;;;-143.16;85.32
14885;BME280;7534;50.762;7.000;2023-04-28T05:31:41;88052.00;;;-143.16;85.73
14885;BME280;7534;50.762;7.000;2023-04-28T05:34:06;88056.06;;;-143.16;86.19
14885;BME280;7534;50.762;7.000;2023-04-28T05:36:32;88130.75;;;-143.16;86.54
14885;BME280;7534;50.762;7.000;2023-04-28T05:38:58;88068.16;;;-143.16;86.76
14885;BME280;7534;50.762;7.000;2023-04-28T05:41:24;88122.66;;;-143.16;87.31
14885;BME280;7534;50.762;7.000;2023-04-28T05:43:50;88124.69;;;-143.16;87.99
14885;BME280;7534;50.762;7.000;2023-04-28T05:46:16;88116.63;;;-143.16;88.38
14885;BME280;7534;50.762;7.000;2023-04-28T05:48:42;88108.53;;;-143.16;88.50
14885;BME280;7534;50.762;7.000;2023-04-28T05:51:08;88100.47;;;-143.16;89.38
14885;BME280;7534;50.762;7.000;2023-04-28T05:53:34;88128.72;;;-143.16;89.69
14885;BME280;7534;50.762;7.000;2023-04-28T05:56:00;88102.47;;;-143.16;89.81
14885;BME280;7534;50.762;7.000;2023-04-28T05:58:25;88078.25;;;-143.16;89.88
14885;BME280;7534;50.762;7.000;2023-04-28T06:00:51;88039.91;;;-143.16;89.72
14885;BME280;7534;50.762;7.000;2023-04-28T06:03:18;88102.47;;;-143.16;90.05
14885;BME280;7534;50.762;7.000;2023-04-28T06:05:44;88102.47;;;-143.16;89.91
14885;BME280;7534;50.762;7.000;2023-04-28T06:08:09;88126.72;;;-143.16;89.83
14885;BME280;7534;50.762;7.000;2023-04-28T06:10:35;88080.28;;;-143.16;89.50
14885;BME280;7534;50.762;7.000;2023-04-28T06:13:01;88084.31;;;-143.16;89.54
14885;BME280;7534;50.762;7.000;2023-04-28T06:15:29;88035.88;;;-143.16;90.19
14885;BME280;7534;50.762;7.000;2023-04-28T06:17:57;88076.25;;;-143.16;90.39
14885;BME280;7534;50.762;7.000;2023-04-28T06:20:26;88003.56;;;-143.16;90.08
14885;BME280;7534;50.762;7.000;2023-04-28T06:22:52;88052.00;;;-143.16;89.68
14885;BME280;7534;50.762;7.000;2023-04-28T06:25:17;88047.97;;;-143.16;89.75
14885;BME280;7534;50.762;7.000;2023-04-28T06:27:43;88068.16;;;-143.16;89.98
14885;BME280;7534;50.762;7.000;2023-04-28T06:30:09;87973.28;;;-143.16;89.97
14885;BME280;7534;50.762;7.000;2023-04-28T06:32:34;88013.66;;;-143.16;88.96
14885;BME280;7534;50.762;7.000;2023-04-28T06:35:00;87914.75;;;-143.16;88.82
14885;BME280;7534;50.762;7.000;2023-04-28T06:37:26;87888.50;;;-143.16;87.66
14885;BME280;7534;50.762;7.000;2023-04-28T06:39:51;87880.44;;;-143.16;85.76
14885;BME280;7534;50.762;7.000;2023-04-28T06:42:17;87910.72;;;-143.16;85.01
14885;BME280;7534;50.762;7.000;2023-04-28T06:44:44;87840.06;;;-143.16;84.36
14885;BME280;7534;50.762;7.000;2023-04-28T06:47:11;87872.38;;;-143.16;82.17
14885;BME280;7534;50.762;7.000;2023-04-28T06:49:36;87811.81;;;-143.16;79.91
14885;BME280;7534;50.762;7.000;2023-04-28T06:52:02;87765.38;;;-143.16;79.21
14885;BME280;7534;50.762;7.000;2023-04-28T06:54:28;87777.50;;;-143.16;78.49
14885;BME280;7534;50.762;7.000;2023-04-28T06:56:53;87708.88;;;-143.16;78.68
14885;BME280;7534;50.762;7.000;2023-04-28T06:59:19;87733.09;;;-143.16;78.16
14885;BME280;7534;50.762;7.000;2023-04-28T07:01:45;87704.84;;;-143.16;76.13
14885;BME280;7534;50.762;7.000;2023-04-28T07:04:10;87725.03;;;-143.16;76.61
14885;BME280;7534;50.762;7.000;2023-04-28T07:06:36;87668.50;;;-143.16;75.59
14885;BME280;7534;50.762;7.000;2023-04-28T07:09:02;87628.13;;;-143.16;74.59
14885;BME280;7534;50.762;7.000;2023-04-28T07:11:29;87523.19;;;-143.16;75.20
14885;BME280;7534;50.762;7.000;2023-04-28T07:13:55;87309.25;;;-143.16;70.96
14885;BME280;7534;50.762;7.000;2023-04-28T07:16:21;87315.31;;;-143.16;66.34
14885;BME280;7534;50.762;7.000;2023-04-28T07:18:47;87276.97;;;-143.16;62.47
14885;BME280;7534;50.762;7.000;2023-04-28T07:21:12;87327.41;;;-143.16;62.50
14885;BME280;7534;50.762;7.000;2023-04-28T07:23:38;87305.22;;;-143.16;61.46
14885;BME280;7534;50.762;7.000;2023-04-28T07:26:05;87274.94;;;-143.16;60.70
14885;BME280;7534;50.762;7.000;2023-04-28T07:28:31;87230.56;;;-143.16;57.96
14885;BME280;7534;50.762;7.000;2023-04-28T07:30:57;87228.53;;;-143.16;56.41
14885;BME280;7534;50.762;7.000;2023-04-28T07:33:22;87260.81;;;-143.16;57.31
14885;BME280;7534;50.762;7.000;2023-04-28T07:35:48;87281.00;;;-143.16;58.26
14885;BME280;7534;50.762;7.000;2023-04-28T07:38:15;87190.19;;;-143.16;58.03
14885;BME280;7534;50.762;7.000;2023-04-28T07:40:42;87172.03;;;-143.16;57.52
14885;BME280;7534;50.762;7.000;2023-04-28T07:43:08;87357.69;;;-143.16;58.12
14885;BME280;7534;50.762;7.000;2023-04-28T07:45:38;87396.03;;;-143.16;58.71
14885;BME280;7534;50.762;7.000;2023-04-28T07:48:04;87305.22;;;-143.16;58.85
14885;BME280;7534;50.762;7.000;2023-04-28T07:50:30;87335.50;;;-143.16;58.46
14885;BME280;7534;50.762;7.000;2023-04-28T07:52:57;87418.25;;;-143.16;60.12
14885;BME280;7534;50.762;7.000;2023-04-28T07:55:23;87385.94;;;-143.16;61.16
14885;BME280;7534;50.762;7.000;2023-04-28T07:57:49;87402.09;;;-143.16;61.69
14885;BME280;7534;50.762;7.000;2023-04-28T08:00:16;87527.22;;;-143.16;62.57
14885;BME280;7534;50.762;7.000;2023-04-28T08:02:42;87377.88;;;-143.16;62.12
14885;BME280;7534;50.762;7.000;2023-04-28T08:05:08;87343.56;;;-143.16;61.99
14885;BME280;7534;50.762;7.000;2023-04-28T08:07:35;87333.47;;;-143.16;59.49
14885;BME280;7534;50.762;7.000;2023-04-28T08:10:04;87232.56;;;-143.16;58.99
14885;BME280;7534;50.762;7.000;2023-04-28T08:12:30;87091.31;;;-143.16;55.57
14885;BME280;7534;50.762;7.000;2023-04-28T08:14:57;86907.66;;;-143.16;53.67
14885;BME280;7534;50.762;7.000;2023-04-28T08:17:22;86853.19;;;-143.16;50.76
14885;BME280;7534;50.762;7.000;2023-04-28T08:19:48;86895.56;;;-143.16;51.13
14885;BME280;7534;50.762;7.000;2023-04-28T08:22:14;86927.84;;;-143.16;52.40
14885;BME280;7534;50.762;7.000;2023-04-28T08:24:40;86859.25;;;-143.16;50.74
14885;BME280;7534;50.762;7.000;2023-04-28T08:27:06;86768.44;;;-143.16;48.69
14885;BME280;7534;50.762;7.000;2023-04-28T08:29:33;86784.56;;;-143.16;49.41
14885;BME280;7534;50.762;7.000;2023-04-28T08:31:59;86810.81;;;-143.16;48.29
14885;BME280;7534;50.762;7.000;2023-04-28T08:34:26;86776.50;;;-143.16;49.39
14885;BME280;7534;50.762;7.000;2023-04-28T08:36:52;86748.25;;;-143.16;48.92
14885;BME280;7534;50.762;7.000;2023-04-28T08:39:18;86756.31;;;-143.16;47.72
14885;BME280;7534;50.762;7.000;2023-04-28T08:41:45;86724.03;;;-143.16;47.67
14885;BME280;7534;50.762;7.000;2023-04-28T08:44:11;86812.81;;;-143.16;47.40
14885;BME280;7534;50.762;7.000;2023-04-28T08:46:42;86776.50;;;-143.16;47.10
14885;BME280;7534;50.762;7.000;2023-04-28T08:49:16;86804.75;;;-143.16;48.00
14885;BME280;7534;50.762;7.000;2023-04-28T08:51:58;86915.75;;;-143.16;48.55
14885;BME280;7534;50.762;7.000;2023-04-28T08:54:30;86946.00;;;-143.16;49.19
14885;BME280;7534;50.762;7.000;2023-04-28T08:56:57;86946.00;;;-143.16;50.27
14885;BME280;7534;50.762;7.000;2023-04-28T08:59:23;86933.91;;;-143.16;53.44
14885;BME280;7534;50.762;7.000;2023-04-28T09:01:49;86933.91;;;-143.16;55.31
14885;BME280;7534;50.762;7.000;2023-04-28T09:04:16;86950.03;;;-143.16;55.39
14885;BME280;7534;50.762;7.000;2023-04-28T09:06:42;86998.47;;;-143.16;56.28
14885;BME280;7534;50.762;7.000;2023-04-28T09:09:26;87057.00;;;-143.16;55.95
14885;BME280;7534;50.762;7.000;2023-04-28T09:11:53;87075.16;;;-143.16;55.67
14885;BME280;7534;50.762;7.000;2023-04-28T09:14:21;87133.69;;;-143.16;56.85
14885;BME280;7534;50.762;7.000;2023-04-28T09:16:48;87196.25;;;-143.16;56.91
14885;BME280;7534;50.762;7.000;2023-04-28T09:19:14;87127.63;;;-143.16;57.20
14885;BME280;7534;50.762;7.000;2023-04-28T09:21:52;87087.25;;;-143.16;56.50
14885;BME280;7534;50.762;7.000;2023-04-28T09:24:32;87113.50;;;-143.16;57.04
14885;BME280;7534;50.762;7.000;2023-04-28T09:27:00;87079.19;;;-143.16;56.47
14885;BME280;7534;50.762;7.000;2023-04-28T09:29:27;87008.56;;;-143.16;57.12
14885;BME280;7534;50.762;7.000;2023-04-28T09:32:11;86972.25;;;-143.16;55.98
14885;BME280;7534;50.762;7.000;2023-04-28T09:34:47;86974.25;;;-143.16;55.42
14885;BME280;7534;50.762;7.000;2023-04-28T09:37:15;86960.13;;;-143.16;56.56
14885;BME280;7534;50.762;7.000;2023-04-28T09:39:44;87036.81;;;-143.16;59.80
14885;BME280;7534;50.762;7.000;2023-04-28T09:42:36;87022.69;;;-143.16;60.42
14885;BME280;7534;50.762;7.000;2023-04-28T09:45:07;87059.00;;;-143.16;61.12
14885;BME280;7534;50.762;7.000;2023-04-28T09:47:37;87042.88;;;-143.16;61.52
14885;BME280;7534;50.762;7.000;2023-04-28T09:50:06;87099.38;;;-143.16;61.15
14885;BME280;7534;50.762;7.000;2023-04-28T09:52:34;87117.53;;;-143.16;61.43
14885;BME280;7534;50.762;7.000;2023-04-28T09:55:04;87109.47;;;-143.16;60.84
14885;BME280;7534;50.762;7.000;2023-04-28T09:57:32;87125.59;;;-143.16;60.64
14885;BME280;7534;50.762;7.000;2023-04-28T10:00:00;87117.53;;;-143.16;61.33
14885;BME280;7534;50.762;7.000;2023-04-28T10:02:27;87135.69;;;-143.16;60.96
14885;BME280;7534;50.762;7.000;2023-04-28T10:04:53;87073.16;;;-143.16;61.69
14885;BME280;7534;50.762;7.000;2023-04-28T10:07:20;87117.53;;;-143.16;62.07
14885;BME280;7534;50.762;7.000;2023-04-28T10:09:50;87172.03;;;-143.16;64.30
14885;BME280;7534;50.762;7.000;2023-04-28T10:12:17;87178.09;;;-143.16;65.44
14885;BME280;7534;50.762;7.000;2023-04-28T10:14:44;87165.97;;;-143.16;66.96
14885;BME280;7534;50.762;7.000;2023-04-28T10:17:13;87218.44;;;-143.16;67.63
14885;BME280;7534;50.762;7.000;2023-04-28T10:19:44;87174.03;;;-143.16;67.44
14885;BME280;7534;50.762;7.000;2023-04-28T10:27:43;87155.88;;;-143.16;70.60
14885;BME280;7534;50.762;7.000;2023-04-28T10:32:40;87079.19;;;-143.16;68.07
14885;BME280;7534;50.762;7.000;2023-04-28T10:38:07;86968.22;;;-143.16;71.17
14885;BME280;7534;50.762;7.000;2023-04-28T10:40:43;86937.94;;;-143.16;71.13
14885;BME280;7534;50.762;7.000;2023-04-28T10:56:18;86485.94;;;-143.16;59.41
14885;BME280;7534;50.762;7.000;2023-04-28T10:58:47;86415.34;;;-143.16;57.91
14885;BME280;7534;50.762;7.000;2023-04-28T11:08:45;86264.00;;;-143.16;55.69
14885;BME280;7534;50.762;7.000;2023-04-28T11:11:19;86245.84;;;-143.16;54.55
14885;BME280;7534;50.762;7.000;2023-04-28T11:13:47;86276.13;;;-143.16;53.21
14885;BME280;7534;50.762;7.000;2023-04-28T11:16:15;86183.31;;;-143.16;53.37
14885;BME280;7534;50.762;7.000;2023-04-28T11:18:56;86255.94;;;-143.16;51.97
14885;BME280;7534;50.762;7.000;2023-04-28T11:21:25;86411.31;;;-143.16;52.77
14885;BME280;7534;50.762;7.000;2023-04-28T11:23:53;86336.66;;;-143.16;52.06
14885;BME280;7534;50.762;7.000;2023-04-28T11:26:19;86364.88;;;-143.16;52.58
14885;BME280;7534;50.762;7.000;2023-04-28T11:28:54;86292.25;;;-143.16;52.11
14885;BME280;7534;50.762;7.000;2023-04-28T11:31:22;86348.75;;;-143.16;53.55
14885;BME280;7534;50.762;7.000;2023-04-28T11:33:57;86399.19;;;-143.16;53.82
14885;BME280;7534;50.762;7.000;2023-04-28T11:36:35;86296.28;;;-143.16;53.71
14885;BME280;7534;50.762;7.000;2023-04-28T11:39:07;86211.56;;;-143.16;51.08
14885;BME280;7534;50.762;7.000;2023-04-28T11:41:39;86167.16;;;-143.16;50.56
14885;BME280;7534;50.762;7.000;2023-04-28T11:44:28;86225.69;;;-143.16;49.83
14885;BME280;7534;50.762;7.000;2023-04-28T11:46:57;86201.47;;;-143.16;48.95
14885;BME280;7534;50.762;7.000;2023-04-28T11:49:48;86147.00;;;-143.16;49.33
14885;BME280;7534;50.762;7.000;2023-04-28T11:52:13;86122.78;;;-143.16;48.69
14885;BME280;7534;50.762;7.000;2023-04-28T11:54:39;86092.53;;;-143.16;47.43
14885;BME280;7534;50.762;7.000;2023-04-28T11:57:17;86094.53;;;-143.16;47.67
14885;BME280;7534;50.762;7.000;2023-04-28T11:59:43;86126.81;;;-143.16;47.66
14885;BME280;7534;50.762;7.000;2023-04-28T12:02:09;86136.91;;;-143.16;46.62
14885;BME280;7534;50.762;7.000;2023-04-28T12:04:41;86092.53;;;-143.16;48.88
14885;BME280;7534;50.762;7.000;2023-04-28T12:07:14;86058.22;;;-143.16;47.68
14885;BME280;7534;50.762;7.000;2023-04-28T12:10:09;86023.94;;;-143.16;47.89
14885;BME280;7534;50.762;7.000;2023-04-28T12:12:31;86078.41;;;-143.16;46.50
14885;BME280;7534;50.762;7.000;2023-04-28T12:15:01;86019.91;;;-143.16;47.50
14885;BME280;7534;50.762;7.000;2023-04-28T12:17:33;86048.16;;;-143.16;48.27
14885;BME280;7534;50.762;7.000;2023-04-28T12:20:02;85959.38;;;-143.16;47.48
14885;BME280;7534;50.762;7.000;2023-04-28T12:22:29;86025.94;;;-143.16;46.50
14885;BME280;7534;50.762;7.000;2023-04-28T12:25:12;86009.81;;;-143.16;46.13
14885;BME280;7534;50.762;7.000;2023-04-28T12:27:39;85969.47;;;-143.16;44.57
14885;BME280;7534;50.762;7.000;2023-04-28T12:32:50;85727.38;;;-143.16;44.16
14885;BME280;7534;50.762;7.000;2023-04-28T12:35:16;85662.84;;;-143.16;42.76
14885;BME280;7534;50.762;7.000;2023-04-28T12:37:43;85707.22;;;-143.16;42.54
14885;BME280;7534;50.762;7.000;2023-04-28T12:40:09;85721.34;;;-143.16;42.21
14885;BME280;7534;50.762;7.000;2023-04-28T12:42:35;85689.06;;;-143.16;40.72
14885;BME280;7534;50.762;7.000;2023-04-28T12:45:02;85699.16;;;-143.16;41.39
14885;BME280;7534;50.762;7.000;2023-04-28T12:47:27;85664.84;;;-143.16;40.15
14885;BME280;7534;50.762;7.000;2023-04-28T12:49:53;85642.66;;;-143.16;40.19
14885;BME280;7534;50.762;7.000;2023-04-28T12:52:19;85822.19;;;-143.16;40.64
14885;BME280;7534;50.762;7.000;2023-04-28T12:54:46;85779.84;;;-143.16;42.29
14885;BME280;7534;50.762;7.000;2023-04-28T12:57:18;85919.03;;;-143.16;41.91
14885;BME280;7534;50.762;7.000;2023-04-28T12:59:47;85987.63;;;-143.16;43.22
14885;BME280;7534;50.762;7.000;2023-04-28T13:02:14;85933.16;;;-143.16;44.72
14885;BME280;7534;50.762;7.000;2023-04-28T13:04:40;85981.56;;;-143.16;43.93
14885;BME280;7534;50.762;7.000;2023-04-28T13:07:16;86003.75;;;-143.16;44.20
14885;BME280;7534;50.762;7.000;2023-04-28T13:09:43;85965.44;;;-143.16;44.67
14885;BME280;7534;50.762;7.000;2023-04-28T13:12:09;85987.63;;;-143.16;43.32
14885;BME280;7534;50.762;7.000;2023-04-28T13:14:36;85957.34;;;-143.16;43.84
14885;BME280;7534;50.762;7.000;2023-04-28T13:17:02;85985.59;;;-143.16;43.37
14885;BME280;7534;50.762;7.000;2023-04-28T13:19:28;86003.75;;;-143.16;43.73
14885;BME280;7534;50.762;7.000;2023-04-28T13:21:55;86019.91;;;-143.16;44.33
14885;BME280;7534;50.762;7.000;2023-04-28T13:24:21;86205.50;;;-143.16;45.16